createdAt,value
2017-01-06T00:00:07.857Z,1032.75
2017-01-06T00:01:17.028Z,1032.72
2017-01-06T00:02:26.598Z,1032.69
2017-01-06T00:03:36.594Z,1032.68
2017-01-06T00:04:45.713Z,1032.71
2017-01-06T00:05:55.719Z,1032.69
2017-01-06T00:07:07.975Z,1032.73
2017-01-06T00:08:16.956Z,1032.71
2017-01-06T00:09:26.353Z,1032.68
2017-01-06T00:10:35.708Z,1032.64
2017-01-06T00:11:45.023Z,1032.59
2017-01-06T00:12:54.242Z,1032.62
2017-01-06T00:14:03.820Z,1032.62
2017-01-06T00:15:12.801Z,1032.6
2017-01-06T00:16:22.230Z,1032.56
2017-01-06T00:17:31.239Z,1032.63
2017-01-06T00:18:40.588Z,1032.65
2017-01-06T00:19:49.910Z,1032.61
2017-01-06T00:20:58.888Z,1032.67
2017-01-06T00:22:07.868Z,1032.69
2017-01-06T00:23:16.847Z,1032.72
2017-01-06T00:24:25.830Z,1032.74
2017-01-06T00:25:34.813Z,1032.74
2017-01-06T00:26:44.089Z,1032.74
2017-01-06T00:27:53.205Z,1032.74
2017-01-06T00:29:02.672Z,1032.75
2017-01-06T00:30:12.999Z,1032.76
2017-01-06T00:31:24.830Z,1032.77
2017-01-06T00:32:34.158Z,1032.78
2017-01-06T00:33:43.140Z,1032.74
2017-01-06T00:34:52.993Z,1032.73
2017-01-06T00:36:02.104Z,1032.73
2017-01-06T00:37:11.084Z,1032.7
2017-01-06T00:38:20.066Z,1032.74
2017-01-06T00:39:29.068Z,1032.75
2017-01-06T00:40:38.046Z,1032.76
2017-01-06T00:41:47.028Z,1032.8
2017-01-06T00:42:56.011Z,1032.82
2017-01-06T00:44:04.990Z,1032.83
2017-01-06T00:45:13.973Z,1032.8
2017-01-06T00:46:22.952Z,1032.84
2017-01-06T00:47:31.936Z,1032.83
2017-01-06T00:48:40.912Z,1032.84
2017-01-06T00:49:49.885Z,1032.9
2017-01-06T00:50:58.864Z,1032.87
2017-01-06T00:52:07.862Z,1032.87
2017-01-06T00:53:17.871Z,1032.88
2017-01-06T00:54:27.228Z,1032.88
2017-01-06T00:56:08.538Z,1032.87
2017-01-06T00:57:19.794Z,1032.83
2017-01-06T00:59:01.440Z,1032.88
2017-01-06T01:00:11.026Z,1032.79
2017-01-06T01:01:20.610Z,1032.86
2017-01-06T01:02:30.031Z,1032.8
2017-01-06T01:03:39.430Z,1032.83
2017-01-06T01:04:48.802Z,1032.83
2017-01-06T01:05:58.048Z,1032.83
2017-01-06T01:07:08.249Z,1032.82
2017-01-06T01:08:17.231Z,1032.83
2017-01-06T01:09:27.098Z,1032.84
2017-01-06T01:10:36.492Z,1032.82
2017-01-06T01:11:46.203Z,1032.79
2017-01-06T01:12:55.395Z,1032.83
2017-01-06T01:14:04.377Z,1032.8
2017-01-06T01:15:13.400Z,1032.78
2017-01-06T01:16:22.419Z,1032.79
2017-01-06T01:17:31.524Z,1032.78
2017-01-06T01:18:41.152Z,1032.78
2017-01-06T01:19:50.128Z,1032.8
2017-01-06T01:20:59.788Z,1032.84
2017-01-06T01:22:09.251Z,1032.82
2017-01-06T01:23:18.232Z,1032.86
2017-01-06T01:24:27.640Z,1032.85
2017-01-06T01:25:37.346Z,1032.93
2017-01-06T01:26:46.683Z,1032.85
2017-01-06T01:27:55.979Z,1032.93
2017-01-06T01:29:05.579Z,1032.9
2017-01-06T01:30:14.563Z,1032.92
2017-01-06T01:31:24.580Z,1032.94
2017-01-06T01:32:33.561Z,1033
2017-01-06T01:33:42.945Z,1033.02
2017-01-06T01:34:51.997Z,1033
2017-01-06T01:36:00.977Z,1032.94
2017-01-06T01:37:09.962Z,1032.91
2017-01-06T01:38:19.084Z,1032.95
2017-01-06T01:39:28.074Z,1032.93
2017-01-06T01:40:37.054Z,1032.98
2017-01-06T01:41:46.031Z,1032.95
2017-01-06T01:42:55.246Z,1032.91
2017-01-06T01:44:04.223Z,1032.95
2017-01-06T01:45:13.468Z,1032.99
2017-01-06T01:46:22.691Z,1032.95
2017-01-06T01:47:31.702Z,1033
2017-01-06T01:48:40.687Z,1032.98
2017-01-06T01:49:49.867Z,1033.03
2017-01-06T01:50:58.844Z,1033.06
2017-01-06T01:52:08.545Z,1033.04
2017-01-06T01:53:18.105Z,1033.17
2017-01-06T01:54:27.085Z,1033.13
2017-01-06T01:55:36.076Z,1033.12
2017-01-06T01:56:45.199Z,1033.17
2017-01-06T01:57:54.461Z,1033.16
2017-01-06T01:59:03.441Z,1033.12
2017-01-06T02:00:12.421Z,1033.13
2017-01-06T02:01:21.399Z,1033.16
2017-01-06T02:02:30.515Z,1033.18
2017-01-06T02:03:39.604Z,1033.11
2017-01-06T02:04:48.583Z,1033.13
2017-01-06T02:05:58.056Z,1033.1
2017-01-06T02:07:11.684Z,1033.13
2017-01-06T02:08:22.349Z,1033.13
2017-01-06T02:09:33.160Z,1033.1
2017-01-06T02:10:44.437Z,1033.16
2017-01-06T02:11:55.739Z,1033.17
2017-01-06T02:13:08.529Z,1033.21
2017-01-06T02:14:20.194Z,1033.23
2017-01-06T02:15:29.884Z,1033.25
2017-01-06T02:16:38.989Z,1033.26
2017-01-06T02:17:50.575Z,1033.24
2017-01-06T02:19:02.465Z,1033.31
2017-01-06T02:20:13.068Z,1033.32
2017-01-06T02:21:23.936Z,1033.33
2017-01-06T02:22:32.910Z,1033.33
2017-01-06T02:23:43.255Z,1033.35
2017-01-06T02:24:54.012Z,1033.36
2017-01-06T02:26:04.514Z,1033.32
2017-01-06T02:27:15.550Z,1033.38
2017-01-06T02:28:26.987Z,1033.4
2017-01-06T02:29:36.031Z,1033.42
2017-01-06T02:30:45.006Z,1033.42
2017-01-06T02:31:53.985Z,1033.44
2017-01-06T02:33:02.962Z,1033.42
2017-01-06T02:34:11.942Z,1033.42
2017-01-06T02:35:20.917Z,1033.45
2017-01-06T02:36:29.934Z,1033.45
2017-01-06T02:37:38.912Z,1033.49
2017-01-06T02:38:47.882Z,1033.49
2017-01-06T02:39:56.859Z,1033.5
2017-01-06T02:41:05.840Z,1033.5
2017-01-06T02:42:14.820Z,1033.52
2017-01-06T02:43:24.206Z,1033.5
2017-01-06T02:44:33.190Z,1033.57
2017-01-06T02:45:42.167Z,1033.57
2017-01-06T02:46:51.140Z,1033.59
2017-01-06T02:48:00.117Z,1033.61
2017-01-06T02:49:09.123Z,1033.55
2017-01-06T02:50:18.105Z,1033.52
2017-01-06T02:51:27.081Z,1033.53
2017-01-06T02:52:36.101Z,1033.56
2017-01-06T02:53:45.076Z,1033.53
2017-01-06T02:54:54.055Z,1033.55
2017-01-06T02:56:03.038Z,1033.55
2017-01-06T02:57:12.017Z,1033.56
2017-01-06T02:58:20.999Z,1033.53
2017-01-06T02:59:29.974Z,1033.53
2017-01-06T03:00:38.954Z,1033.54
2017-01-06T03:01:47.935Z,1033.57
2017-01-06T03:02:56.915Z,1033.65
2017-01-06T03:04:05.893Z,1033.58
2017-01-06T03:05:14.870Z,1033.57
2017-01-06T03:06:23.847Z,1033.58
2017-01-06T03:07:32.825Z,1033.59
2017-01-06T03:08:41.799Z,1033.58
2017-01-06T03:09:50.782Z,1033.64
2017-01-06T03:10:59.765Z,1033.68
2017-01-06T03:12:08.743Z,1033.66
2017-01-06T03:13:17.727Z,1033.71
2017-01-06T03:14:26.707Z,1033.67
2017-01-06T03:15:35.690Z,1033.68
2017-01-06T03:16:44.673Z,1033.67
2017-01-06T03:17:53.653Z,1033.64
2017-01-06T03:19:02.633Z,1033.62
2017-01-06T03:20:11.610Z,1033.62
2017-01-06T03:21:20.584Z,1033.57
2017-01-06T03:22:29.559Z,1033.56
2017-01-06T03:23:38.558Z,1033.59
2017-01-06T03:24:47.534Z,1033.65
2017-01-06T03:25:56.510Z,1033.62
2017-01-06T03:27:05.489Z,1033.64
2017-01-06T03:28:14.475Z,1033.65
2017-01-06T03:29:23.476Z,1033.65
2017-01-06T03:30:32.452Z,1033.61
2017-01-06T03:31:41.430Z,1033.69
2017-01-06T03:32:50.403Z,1033.69
2017-01-06T03:33:59.379Z,1033.7
2017-01-06T03:35:08.359Z,1033.7
2017-01-06T03:36:17.341Z,1033.76
2017-01-06T03:37:26.356Z,1033.75
2017-01-06T03:38:35.337Z,1033.76
2017-01-06T03:39:44.312Z,1033.74
2017-01-06T03:40:53.287Z,1033.81
2017-01-06T03:42:02.264Z,1033.78
2017-01-06T03:43:11.245Z,1033.83
2017-01-06T03:44:20.217Z,1033.85
2017-01-06T03:45:29.192Z,1033.87
2017-01-06T03:46:38.168Z,1033.88
2017-01-06T03:47:47.142Z,1033.91
2017-01-06T03:48:56.117Z,1033.87
2017-01-06T03:50:05.096Z,1033.87
2017-01-06T03:51:14.074Z,1033.96
2017-01-06T03:52:23.053Z,1033.93
2017-01-06T03:53:32.031Z,1033.98
2017-01-06T03:54:41.021Z,1033.95
2017-01-06T03:55:49.996Z,1033.97
2017-01-06T03:56:58.971Z,1033.99
2017-01-06T03:58:07.954Z,1033.98
2017-01-06T03:59:16.926Z,1034.02
2017-01-06T04:00:25.908Z,1034.01
2017-01-06T04:01:34.884Z,1034.01
2017-01-06T04:02:43.865Z,1033.99
2017-01-06T04:03:52.848Z,1033.99
2017-01-06T04:05:01.825Z,1033.98
2017-01-06T04:06:10.800Z,1033.99
2017-01-06T04:07:19.777Z,1034.06
2017-01-06T04:08:28.754Z,1034.03
2017-01-06T04:09:37.732Z,1034.05
2017-01-06T04:10:46.736Z,1034.09
2017-01-06T04:11:55.717Z,1034.13
2017-01-06T04:13:04.693Z,1034.09
2017-01-06T04:14:13.671Z,1034.09
2017-01-06T04:15:22.645Z,1034.11
2017-01-06T04:16:31.623Z,1034.09
2017-01-06T04:17:40.608Z,1034.11
2017-01-06T04:18:49.585Z,1034.1
2017-01-06T04:19:58.564Z,1034.11
2017-01-06T04:21:07.542Z,1034.1
2017-01-06T04:22:16.523Z,1034.13
2017-01-06T04:23:25.503Z,1034.2
2017-01-06T04:24:34.481Z,1034.17
2017-01-06T04:25:43.457Z,1034.2
2017-01-06T04:26:52.430Z,1034.17
2017-01-06T04:28:01.411Z,1034.13
2017-01-06T04:29:10.387Z,1034.12
2017-01-06T04:30:19.361Z,1034.15
2017-01-06T04:31:28.338Z,1034.13
2017-01-06T04:32:37.312Z,1034.17
2017-01-06T04:33:46.297Z,1034.17
2017-01-06T04:34:55.275Z,1034.21
2017-01-06T04:36:04.249Z,1034.16
2017-01-06T04:37:13.236Z,1034.18
2017-01-06T04:38:22.212Z,1034.18
2017-01-06T04:39:31.189Z,1034.23
2017-01-06T04:40:40.166Z,1034.29
2017-01-06T04:41:49.146Z,1034.29
2017-01-06T04:42:58.118Z,1034.26
2017-01-06T04:44:07.096Z,1034.27
2017-01-06T04:45:16.074Z,1034.29
2017-01-06T04:46:25.055Z,1034.29
2017-01-06T04:47:34.034Z,1034.34
2017-01-06T04:48:43.014Z,1034.36
2017-01-06T04:49:51.992Z,1034.32
2017-01-06T04:51:00.997Z,1034.34
2017-01-06T04:52:09.979Z,1034.31
2017-01-06T04:53:18.956Z,1034.33
2017-01-06T04:54:27.963Z,1034.32
2017-01-06T04:55:36.941Z,1034.34
2017-01-06T04:56:45.917Z,1034.3
2017-01-06T04:57:54.900Z,1034.32
2017-01-06T04:59:03.882Z,1034.34
2017-01-06T05:00:12.859Z,1034.3
2017-01-06T05:01:21.839Z,1034.34
2017-01-06T05:02:30.821Z,1034.35
2017-01-06T05:03:39.799Z,1034.31
2017-01-06T05:04:48.786Z,1034.4
2017-01-06T05:05:57.764Z,1034.38
2017-01-06T05:07:06.739Z,1034.44
2017-01-06T05:08:15.718Z,1034.38
2017-01-06T05:09:24.697Z,1034.38
2017-01-06T05:10:33.676Z,1034.39
2017-01-06T05:11:42.654Z,1034.42
2017-01-06T05:12:51.637Z,1034.45
2017-01-06T05:14:00.622Z,1034.42
2017-01-06T05:15:09.601Z,1034.43
2017-01-06T05:16:18.580Z,1034.41
2017-01-06T05:17:27.558Z,1034.42
2017-01-06T05:18:36.539Z,1034.4
2017-01-06T05:19:45.516Z,1034.45
2017-01-06T05:20:54.497Z,1034.44
2017-01-06T05:22:03.480Z,1034.49
2017-01-06T05:23:12.456Z,1034.48
2017-01-06T05:24:21.465Z,1034.49
2017-01-06T05:25:30.446Z,1034.53
2017-01-06T05:26:39.424Z,1034.56
2017-01-06T05:27:48.406Z,1034.54
2017-01-06T05:28:57.383Z,1034.59
2017-01-06T05:30:06.357Z,1034.57
2017-01-06T05:31:15.331Z,1034.61
2017-01-06T05:32:24.306Z,1034.63
2017-01-06T05:33:33.285Z,1034.62
2017-01-06T05:34:42.264Z,1034.66
2017-01-06T05:35:51.247Z,1034.67
2017-01-06T05:37:00.222Z,1034.67
2017-01-06T05:38:09.206Z,1034.66
2017-01-06T05:39:18.182Z,1034.66
2017-01-06T05:40:27.187Z,1034.67
2017-01-06T05:41:36.169Z,1034.71
2017-01-06T05:42:45.145Z,1034.73
2017-01-06T05:43:54.123Z,1034.7
2017-01-06T05:45:03.104Z,1034.71
2017-01-06T05:46:12.080Z,1034.69
2017-01-06T05:47:21.060Z,1034.68
2017-01-06T05:48:30.061Z,1034.69
2017-01-06T05:49:39.067Z,1034.73
2017-01-06T05:50:48.044Z,1034.69
2017-01-06T05:51:57.026Z,1034.67
2017-01-06T05:53:06.011Z,1034.74
2017-01-06T05:54:14.986Z,1034.73
2017-01-06T05:55:23.963Z,1034.74
2017-01-06T05:56:32.976Z,1034.74
2017-01-06T05:57:42.077Z,1034.79
2017-01-06T05:58:51.053Z,1034.78
2017-01-06T06:00:00.059Z,1034.83
2017-01-06T06:01:09.036Z,1034.81
2017-01-06T06:02:18.016Z,1034.82
2017-01-06T06:03:26.994Z,1034.84
2017-01-06T06:04:35.976Z,1034.83
2017-01-06T06:05:44.954Z,1034.81
2017-01-06T06:06:53.929Z,1034.81
2017-01-06T06:08:02.907Z,1034.85
2017-01-06T06:09:11.882Z,1034.83
2017-01-06T06:10:20.863Z,1034.84
2017-01-06T06:11:29.870Z,1034.84
2017-01-06T06:12:38.847Z,1034.82
2017-01-06T06:13:47.828Z,1034.82
2017-01-06T06:14:56.805Z,1034.78
2017-01-06T06:16:05.786Z,1034.74
2017-01-06T06:17:14.775Z,1034.74
2017-01-06T06:18:23.763Z,1034.72
2017-01-06T06:19:32.737Z,1034.69
2017-01-06T06:20:41.715Z,1034.74
2017-01-06T06:21:50.691Z,1034.72
2017-01-06T06:22:59.667Z,1034.77
2017-01-06T06:24:08.644Z,1034.8
2017-01-06T06:25:17.621Z,1034.81
2017-01-06T06:26:26.599Z,1034.82
2017-01-06T06:27:35.578Z,1034.84
2017-01-06T06:28:44.554Z,1034.88
2017-01-06T06:29:53.529Z,1034.92
2017-01-06T06:31:02.503Z,1034.91
2017-01-06T06:32:11.480Z,1034.88
2017-01-06T06:33:20.456Z,1034.94
2017-01-06T06:34:29.436Z,1035
2017-01-06T06:35:38.414Z,1035.01
2017-01-06T06:36:47.391Z,1034.99
2017-01-06T06:37:56.365Z,1035.01
2017-01-06T06:39:05.347Z,1035
2017-01-06T06:40:14.352Z,1035.03
2017-01-06T06:41:23.332Z,1035.01
2017-01-06T06:42:32.310Z,1035.04
2017-01-06T06:43:41.288Z,1035.05
2017-01-06T06:44:50.264Z,1035.1
2017-01-06T06:45:59.246Z,1035.1
2017-01-06T06:47:08.225Z,1035.07
2017-01-06T06:48:17.205Z,1035.12
2017-01-06T06:49:26.188Z,1035.13
2017-01-06T06:50:35.163Z,1035.16
2017-01-06T06:51:44.142Z,1035.17
2017-01-06T06:52:53.118Z,1035.19
2017-01-06T06:54:02.127Z,1035.23
2017-01-06T06:55:11.139Z,1035.24
2017-01-06T06:56:20.115Z,1035.23
2017-01-06T06:57:29.088Z,1035.22
2017-01-06T06:58:38.061Z,1035.21
2017-01-06T06:59:47.039Z,1035.21
2017-01-06T07:00:56.021Z,1035.21
2017-01-06T07:02:05.003Z,1035.21
2017-01-06T07:03:13.983Z,1035.24
2017-01-06T07:04:22.963Z,1035.31
2017-01-06T07:05:31.940Z,1035.28
2017-01-06T07:06:40.918Z,1035.36
2017-01-06T07:07:49.899Z,1035.31
2017-01-06T07:08:58.876Z,1035.3
2017-01-06T07:10:07.852Z,1035.29
2017-01-06T07:11:16.829Z,1035.3
2017-01-06T07:12:25.810Z,1035.32
2017-01-06T07:13:34.787Z,1035.3
2017-01-06T07:14:43.763Z,1035.31
2017-01-06T07:15:52.737Z,1035.32
2017-01-06T07:17:01.713Z,1035.34
2017-01-06T07:18:10.692Z,1035.37
2017-01-06T07:19:19.670Z,1035.34
2017-01-06T07:20:28.647Z,1035.31
2017-01-06T07:21:37.623Z,1035.33
2017-01-06T07:22:46.610Z,1035.31
2017-01-06T07:23:55.586Z,1035.32
2017-01-06T07:25:04.563Z,1035.34
2017-01-06T07:26:13.550Z,1035.34
2017-01-06T07:27:22.532Z,1035.33
2017-01-06T07:28:31.512Z,1035.34
2017-01-06T07:29:40.493Z,1035.42
2017-01-06T07:30:49.478Z,1035.4
2017-01-06T07:31:58.459Z,1035.43
2017-01-06T07:33:07.435Z,1035.41
2017-01-06T07:34:16.415Z,1035.44
2017-01-06T07:35:25.398Z,1035.41
2017-01-06T07:36:34.373Z,1035.43
2017-01-06T07:37:43.353Z,1035.43
2017-01-06T07:38:52.330Z,1035.4
2017-01-06T07:40:01.309Z,1035.43
2017-01-06T07:41:10.283Z,1035.44
2017-01-06T07:42:19.259Z,1035.45
2017-01-06T07:43:28.259Z,1035.49
2017-01-06T07:44:37.242Z,1035.53
2017-01-06T07:45:46.250Z,1035.53
2017-01-06T07:46:55.223Z,1035.52
2017-01-06T07:48:04.200Z,1035.51
2017-01-06T07:49:13.176Z,1035.55
2017-01-06T07:50:22.156Z,1035.53
2017-01-06T07:51:31.132Z,1035.55
2017-01-06T07:52:40.136Z,1035.54
2017-01-06T07:53:49.113Z,1035.58
2017-01-06T07:54:58.086Z,1035.54
2017-01-06T07:56:07.069Z,1035.53
2017-01-06T07:57:16.055Z,1035.53
2017-01-06T07:58:25.035Z,1035.56
2017-01-06T07:59:34.031Z,1035.55
2017-01-06T08:00:43.027Z,1035.54
2017-01-06T08:01:52.004Z,1035.54
2017-01-06T08:03:00.983Z,1035.53
2017-01-06T08:04:09.966Z,1035.56
2017-01-06T08:05:18.943Z,1035.57
2017-01-06T08:06:27.924Z,1035.59
2017-01-06T08:07:36.909Z,1035.51
2017-01-06T08:08:45.887Z,1035.6
2017-01-06T08:09:54.866Z,1035.59
2017-01-06T08:11:04.146Z,1035.61
2017-01-06T08:12:13.217Z,1035.63
2017-01-06T08:13:22.194Z,1035.7
2017-01-06T08:14:31.173Z,1035.63
2017-01-06T08:15:40.151Z,1035.7
2017-01-06T08:16:49.125Z,1035.69
2017-01-06T08:17:58.106Z,1035.69
2017-01-06T08:19:07.080Z,1035.67
2017-01-06T08:20:16.062Z,1035.68
2017-01-06T08:21:25.038Z,1035.72
2017-01-06T08:22:34.023Z,1035.62
2017-01-06T08:23:43.009Z,1035.59
2017-01-06T08:24:51.990Z,1035.57
2017-01-06T08:26:00.969Z,1035.67
2017-01-06T08:27:09.975Z,1035.65
2017-01-06T08:28:18.956Z,1035.66
2017-01-06T08:29:28.137Z,1035.7
2017-01-06T08:30:37.114Z,1035.69
2017-01-06T08:31:46.092Z,1035.67
2017-01-06T08:32:55.071Z,1035.68
2017-01-06T08:34:04.048Z,1035.68
2017-01-06T08:35:13.029Z,1035.71
2017-01-06T08:36:22.007Z,1035.7
2017-01-06T08:37:30.993Z,1035.73
2017-01-06T08:38:39.974Z,1035.74
2017-01-06T08:39:48.959Z,1035.69
2017-01-06T08:40:57.934Z,1035.7
2017-01-06T08:42:06.912Z,1035.7
2017-01-06T08:43:15.890Z,1035.71
2017-01-06T08:44:24.864Z,1035.69
2017-01-06T08:45:33.917Z,1035.73
2017-01-06T08:46:44.334Z,1035.73
2017-01-06T08:47:54.391Z,1035.71
2017-01-06T08:49:05.525Z,1035.73
2017-01-06T08:50:14.538Z,1035.71
2017-01-06T08:51:23.543Z,1035.75
2017-01-06T08:52:32.523Z,1035.72
2017-01-06T08:53:41.502Z,1035.69
2017-01-06T08:54:50.481Z,1035.73
2017-01-06T08:55:59.458Z,1035.73
2017-01-06T08:57:08.445Z,1035.77
2017-01-06T08:58:17.425Z,1035.82
2017-01-06T08:59:26.400Z,1035.81
2017-01-06T09:00:35.377Z,1035.82
2017-01-06T09:01:44.354Z,1035.79
2017-01-06T09:02:53.331Z,1035.85
2017-01-06T09:04:02.310Z,1035.79
2017-01-06T09:05:11.288Z,1035.76
2017-01-06T09:06:20.265Z,1035.79
2017-01-06T09:07:29.248Z,1035.79
2017-01-06T09:08:38.506Z,1035.82
2017-01-06T09:09:47.480Z,1035.78
2017-01-06T09:10:56.465Z,1035.84
2017-01-06T09:12:05.447Z,1035.86
2017-01-06T09:13:14.429Z,1035.86
2017-01-06T09:14:23.408Z,1035.89
2017-01-06T09:15:32.386Z,1035.9
2017-01-06T09:16:41.364Z,1035.89
2017-01-06T09:17:50.371Z,1035.89
2017-01-06T09:18:59.372Z,1035.87
2017-01-06T09:20:08.354Z,1035.89
2017-01-06T09:21:17.334Z,1035.83
2017-01-06T09:22:26.316Z,1035.9
2017-01-06T09:23:35.295Z,1035.87
2017-01-06T09:24:44.285Z,1035.89
2017-01-06T09:25:53.263Z,1035.86
2017-01-06T09:27:02.249Z,1035.82
2017-01-06T09:28:11.228Z,1035.87
2017-01-06T09:29:20.207Z,1035.91
2017-01-06T09:30:29.332Z,1035.93
2017-01-06T09:31:38.526Z,1035.91
2017-01-06T09:32:47.508Z,1035.93
2017-01-06T09:33:56.632Z,1035.91
2017-01-06T09:35:06.421Z,1035.81
2017-01-06T09:36:15.399Z,1035.87
2017-01-06T09:37:24.594Z,1035.87
2017-01-06T09:38:33.589Z,1035.82
2017-01-06T09:39:42.576Z,1035.78
2017-01-06T09:40:51.651Z,1035.81
2017-01-06T09:42:00.696Z,1035.83
2017-01-06T09:43:09.673Z,1035.83
2017-01-06T09:44:18.878Z,1035.83
2017-01-06T09:45:28.419Z,1035.76
2017-01-06T09:46:37.398Z,1035.72
2017-01-06T09:47:46.377Z,1035.72
2017-01-06T09:48:55.357Z,1035.73
2017-01-06T09:50:05.221Z,1035.7
2017-01-06T09:51:14.428Z,1035.66
2017-01-06T09:52:23.418Z,1035.68
2017-01-06T09:53:32.857Z,1035.67
2017-01-06T09:54:41.835Z,1035.66
2017-01-06T09:55:51.131Z,1035.62
2017-01-06T09:57:00.112Z,1035.58
2017-01-06T09:58:09.826Z,1035.57
2017-01-06T09:59:19.527Z,1035.58
2017-01-06T10:00:28.508Z,1035.59
2017-01-06T10:01:37.486Z,1035.64
2017-01-06T10:02:47.289Z,1035.62
2017-01-06T10:03:56.276Z,1035.66
2017-01-06T10:05:05.256Z,1035.63
2017-01-06T10:06:14.994Z,1035.61
2017-01-06T10:07:23.967Z,1035.55
2017-01-06T10:08:32.946Z,1035.53
2017-01-06T10:09:41.954Z,1035.51
2017-01-06T10:10:50.937Z,1035.58
2017-01-06T10:12:00.368Z,1035.58
2017-01-06T10:13:09.351Z,1035.56
2017-01-06T10:14:18.334Z,1035.52
2017-01-06T10:15:27.826Z,1035.51
2017-01-06T10:16:37.534Z,1035.52
2017-01-06T10:17:46.721Z,1035.53
2017-01-06T10:18:55.891Z,1035.55
2017-01-06T10:20:05.373Z,1035.5
2017-01-06T10:21:15.038Z,1035.53
2017-01-06T10:22:24.887Z,1035.58
2017-01-06T10:23:34.798Z,1035.52
2017-01-06T10:24:44.377Z,1035.54
2017-01-06T10:25:54.045Z,1035.5
2017-01-06T10:27:03.026Z,1035.51
2017-01-06T10:28:12.004Z,1035.56
2017-01-06T10:29:21.782Z,1035.53
2017-01-06T10:30:31.395Z,1035.55
2017-01-06T10:31:40.373Z,1035.6
2017-01-06T10:32:49.655Z,1035.58
2017-01-06T10:33:58.638Z,1035.61
2017-01-06T10:35:07.618Z,1035.58
2017-01-06T10:36:16.600Z,1035.53
2017-01-06T10:37:25.750Z,1035.52
2017-01-06T10:38:35.018Z,1035.54
2017-01-06T10:39:44.180Z,1035.5
2017-01-06T10:40:53.296Z,1035.5
2017-01-06T10:42:02.271Z,1035.5
2017-01-06T10:43:11.607Z,1035.51
2017-01-06T10:44:20.596Z,1035.47
2017-01-06T10:45:29.578Z,1035.49
2017-01-06T10:46:38.562Z,1035.46
2017-01-06T10:47:47.958Z,1035.43
2017-01-06T10:48:56.939Z,1035.43
2017-01-06T10:50:06.204Z,1035.39
2017-01-06T10:51:16.645Z,1035.37
2017-01-06T10:52:26.656Z,1035.39
2017-01-06T10:53:35.637Z,1035.37
2017-01-06T10:54:44.908Z,1035.34
2017-01-06T10:55:54.988Z,1035.34
2017-01-06T10:57:04.069Z,1035.33
2017-01-06T10:58:13.154Z,1035.3
2017-01-06T10:59:22.141Z,1035.3
2017-01-06T11:00:31.206Z,1035.29
2017-01-06T11:01:40.395Z,1035.25
2017-01-06T11:02:49.634Z,1035.28
2017-01-06T11:03:59.146Z,1035.27
2017-01-06T11:05:08.281Z,1035.24
2017-01-06T11:06:17.266Z,1035.22
2017-01-06T11:07:26.333Z,1035.16
2017-01-06T11:08:35.498Z,1035.14
2017-01-06T11:09:44.483Z,1035.17
2017-01-06T11:10:54.057Z,1035.14
2017-01-06T11:12:03.076Z,1035.16
2017-01-06T11:13:12.337Z,1035.14
2017-01-06T11:14:21.314Z,1035.16
2017-01-06T11:15:30.299Z,1035.16
2017-01-06T11:16:39.274Z,1035.16
2017-01-06T11:17:48.440Z,1035.17
2017-01-06T11:18:57.737Z,1035.17
2017-01-06T11:20:06.756Z,1035.2
2017-01-06T11:21:16.025Z,1035.2
2017-01-06T11:22:25.052Z,1035.24
2017-01-06T11:23:34.044Z,1035.24
2017-01-06T11:24:43.030Z,1035.25
2017-01-06T11:25:52.034Z,1035.28
2017-01-06T11:27:01.352Z,1035.25
2017-01-06T11:28:11.383Z,1035.21
2017-01-06T11:29:21.515Z,1035.19
2017-01-06T11:30:33.738Z,1035.19
2017-01-06T11:31:43.897Z,1035.17
2017-01-06T11:32:54.077Z,1035.19
2017-01-06T11:34:05.484Z,1035.18
2017-01-06T11:35:15.827Z,1035.21
2017-01-06T11:36:27.048Z,1035.14
2017-01-06T11:37:37.540Z,1035.13
2017-01-06T11:38:47.905Z,1035.1
2017-01-06T11:39:56.994Z,1035.09
2017-01-06T11:41:05.980Z,1035.13
2017-01-06T11:42:15.330Z,1035.12
2017-01-06T11:43:24.452Z,1035.1
2017-01-06T11:44:33.464Z,1035.09
2017-01-06T11:45:42.499Z,1035.09
2017-01-06T11:46:52.098Z,1035.04
2017-01-06T11:48:01.273Z,1035.07
2017-01-06T11:49:10.288Z,1035.08
2017-01-06T11:50:19.391Z,1035.05
2017-01-06T11:51:28.670Z,1035.03
2017-01-06T11:52:37.967Z,1035.08
2017-01-06T11:53:47.267Z,1035.06
2017-01-06T11:54:56.360Z,1035.11
2017-01-06T11:56:05.579Z,1035.06
2017-01-06T11:57:14.560Z,1035.07
2017-01-06T11:58:23.536Z,1035.03
2017-01-06T11:59:32.571Z,1035.06
2017-01-06T12:00:41.547Z,1035.08
2017-01-06T12:01:51.060Z,1035.1
2017-01-06T12:03:00.340Z,1035.06
2017-01-06T12:04:09.320Z,1035.13
2017-01-06T12:05:18.306Z,1035.1
2017-01-06T12:06:27.331Z,1035.13
2017-01-06T12:07:37.063Z,1035.15
2017-01-06T12:08:46.943Z,1035.15
2017-01-06T12:09:56.057Z,1035.14
2017-01-06T12:11:05.483Z,1035.11
2017-01-06T12:12:14.460Z,1035.09
2017-01-06T12:13:23.448Z,1035.04
2017-01-06T12:14:32.438Z,1035.02
2017-01-06T12:15:41.727Z,1035
2017-01-06T12:16:51.022Z,1034.98
2017-01-06T12:18:00.005Z,1034.99
2017-01-06T12:19:08.994Z,1034.96
2017-01-06T12:20:17.971Z,1034.97
2017-01-06T12:21:26.954Z,1034.93
2017-01-06T12:22:35.936Z,1034.9
2017-01-06T12:23:44.914Z,1034.86
2017-01-06T12:24:53.892Z,1034.85
2017-01-06T12:26:02.878Z,1034.87
2017-01-06T12:27:11.860Z,1034.85
2017-01-06T12:28:20.838Z,1034.87
2017-01-06T12:29:29.821Z,1034.89
2017-01-06T12:30:38.797Z,1034.86
2017-01-06T12:31:47.784Z,1034.86
2017-01-06T12:32:56.762Z,1034.89
2017-01-06T12:34:05.743Z,1034.91
2017-01-06T12:35:14.726Z,1034.9
2017-01-06T12:36:23.710Z,1034.93
2017-01-06T12:37:34.046Z,1034.94
2017-01-06T12:38:43.046Z,1034.9
2017-01-06T12:39:52.024Z,1034.91
2017-01-06T12:41:01.008Z,1034.92
2017-01-06T12:42:09.994Z,1034.94
2017-01-06T12:43:18.974Z,1034.89
2017-01-06T12:44:27.955Z,1034.93
2017-01-06T12:45:36.937Z,1034.92
2017-01-06T12:46:45.915Z,1034.9
2017-01-06T12:47:54.962Z,1034.89
2017-01-06T12:49:04.240Z,1034.92
2017-01-06T12:50:13.224Z,1034.89
2017-01-06T12:51:22.212Z,1034.88
2017-01-06T12:52:31.197Z,1034.87
2017-01-06T12:53:40.180Z,1034.86
2017-01-06T12:54:49.180Z,1034.86
2017-01-06T12:55:58.186Z,1034.82
2017-01-06T12:57:07.199Z,1034.88
2017-01-06T12:58:16.211Z,1034.85
2017-01-06T12:59:25.221Z,1034.84
2017-01-06T13:00:34.234Z,1034.8
2017-01-06T13:01:43.243Z,1034.8
2017-01-06T13:02:52.241Z,1034.78
2017-01-06T13:04:01.251Z,1034.8
2017-01-06T13:05:10.230Z,1034.75
2017-01-06T13:07:43.116Z,1034.78
2017-01-06T13:08:52.104Z,1034.82
2017-01-06T13:10:01.085Z,1034.87
2017-01-06T13:11:10.067Z,1034.88
2017-01-06T13:12:19.053Z,1034.86
2017-01-06T13:13:28.033Z,1034.86
2017-01-06T13:14:37.039Z,1034.91
2017-01-06T13:15:46.021Z,1034.86
2017-01-06T13:16:55.007Z,1034.89
2017-01-06T13:18:03.990Z,1034.89
2017-01-06T13:19:12.971Z,1034.91
2017-01-06T13:20:21.952Z,1034.89
2017-01-06T13:21:30.937Z,1034.93
2017-01-06T13:22:39.918Z,1034.94
2017-01-06T13:23:48.898Z,1034.94
2017-01-06T13:24:57.886Z,1034.93
2017-01-06T13:26:06.864Z,1034.94
2017-01-06T13:27:15.846Z,1034.93
2017-01-06T13:28:26.149Z,1034.89
2017-01-06T13:29:35.471Z,1034.94
2017-01-06T13:30:44.455Z,1034.93
2017-01-06T13:31:53.444Z,1034.95
2017-01-06T13:33:02.455Z,1034.97
2017-01-06T13:34:11.446Z,1035.02
2017-01-06T13:35:20.428Z,1034.98
2017-01-06T13:36:29.411Z,1034.98
2017-01-06T13:37:38.388Z,1035.03
2017-01-06T13:38:47.367Z,1035
2017-01-06T13:39:56.351Z,1034.99
2017-01-06T13:41:05.336Z,1035.04
2017-01-06T13:42:14.313Z,1035.03
2017-01-06T13:43:23.320Z,1035.01
2017-01-06T13:44:32.301Z,1035.08
2017-01-06T13:45:41.298Z,1035.07
2017-01-06T13:46:50.280Z,1035.03
2017-01-06T13:47:59.260Z,1035.04
2017-01-06T13:49:08.246Z,1034.99
2017-01-06T13:50:17.230Z,1035.06
2017-01-06T13:51:26.213Z,1035
2017-01-06T13:52:35.197Z,1035.04
2017-01-06T13:53:44.175Z,1035.05
2017-01-06T13:54:53.162Z,1035.05
2017-01-06T13:56:02.145Z,1035.07
2017-01-06T13:57:11.125Z,1035.04
2017-01-06T13:58:20.102Z,1035.06
2017-01-06T13:59:29.088Z,1035.08
2017-01-06T14:00:38.481Z,1035.09
2017-01-06T14:01:47.466Z,1035.1